Time;durP1;ratioP1;P1;durP2;ratioP2;P2;SDS_P1;SDS_P2;PMS_P1;PMS_P2;Temp;Humidity;BMP_temperature;BMP_pressure;BME280_temperature;BME280_humidity;BME280_pressure;Samples;Min_cycle;Max_cycle;Signal;HPM_P1;HPM_P2
2022/08/08 00:00:06;;;;;;;2.60;1.50;;;19.80;47.10;;;;;;5050825;28;20048;-50
2022/08/08 00:03:06;;;;;;;2.00;1.75;;;19.70;47.30;;;;;;5070677;28;20045;-51
2022/08/08 00:06:09;;;;;;;1.80;1.67;;;19.70;47.10;;;;;;5046490;28;20041;-46
2022/08/08 00:08:52;;;;;;;3.28;2.00;;;19.70;47.20;;;;;;5061104;28;20037;-50
2022/08/08 00:11:43;;;;;;;2.20;2.00;;;19.60;46.90;;;;;;5072991;28;20432;-50
2022/08/08 00:14:45;;;;;;;1.88;1.77;;;19.50;47.70;;;;;;5057371;28;20037;-50
2022/08/08 00:17:52;;;;;;;2.20;1.75;;;19.50;47.90;;;;;;5059101;28;20496;-51
2022/08/08 00:20:38;;;;;;;2.13;1.27;;;19.50;48.00;;;;;;5073113;28;20044;-50
2022/08/08 00:23:12;;;;;;;2.30;1.77;;;19.40;47.80;;;;;;5069759;28;20077;-50
2022/08/08 00:25:48;;;;;;;2.47;1.83;;;19.30;47.90;;;;;;5062898;28;20056;-51
2022/08/08 00:28:28;;;;;;;2.58;2.10;;;19.30;48.00;;;;;;5073157;28;20382;-50
2022/08/08 00:31:33;;;;;;;3.72;1.83;;;19.20;48.20;;;;;;5065381;28;20632;-49
2022/08/08 00:35:17;;;;;;;3.05;2.13;;;19.20;48.70;;;;;;5061407;28;20068;-51
2022/08/08 00:38:11;;;;;;;2.33;1.88;;;19.10;48.50;;;;;;5055280;28;20041;-50
2022/08/08 00:41:36;;;;;;;3.20;1.90;;;19.10;48.80;;;;;;5056843;28;20137;-49
2022/08/08 00:44:49;;;;;;;2.38;2.15;;;19.00;48.80;;;;;;5059273;28;20079;-50
2022/08/08 00:47:29;;;;;;;2.15;2.00;;;19.00;49.10;;;;;;5071545;28;20049;-46
2022/08/08 00:50:53;;;;;;;2.60;2.15;;;18.90;48.40;;;;;;5072819;28;20071;-49
2022/08/08 00:53:53;;;;;;;5.35;2.50;;;19.00;49.30;;;;;;5055260;28;20058;-48
2022/08/08 00:57:10;;;;;;;2.13;1.92;;;18.90;49.50;;;;;;5072912;28;20044;-49
2022/08/08 01:00:16;;;;;;;2.17;1.98;;;18.80;50.10;;;;;;5015134;28;20426;-50
2022/08/08 01:03:06;;;;;;;3.85;2.40;;;18.80;49.40;;;;;;5036199;28;20494;-47
2022/08/08 01:06:14;;;;;;;2.60;2.33;;;18.80;49.00;;;;;;5033728;28;20397;-46
2022/08/08 01:08:52;;;;;;;2.83;2.15;;;18.70;49.70;;;;;;5054750;28;20110;-49
2022/08/08 01:12:00;;;;;;;2.80;2.22;;;18.70;49.60;;;;;;5054361;28;20131;-50
2022/08/08 01:15:07;;;;;;;3.00;2.70;;;18.60;50.00;;;;;;5054558;28;20562;-49
2022/08/08 01:18:15;;;;;;;2.50;2.30;;;18.60;50.00;;;;;;5054376;28;20059;-50
2022/08/08 01:21:28;;;;;;;2.75;2.50;;;18.60;50.20;;;;;;5028299;28;20042;-49
2022/08/08 01:24:37;;;;;;;2.45;2.25;;;18.50;50.20;;;;;;5053387;28;20131;-46
2022/08/08 01:27:50;;;;;;;3.22;2.63;;;18.40;49.80;;;;;;5068894;28;20041;-49
2022/08/08 01:30:57;;;;;;;2.53;2.33;;;18.40;50.60;;;;;;5049687;28;20094;-50
2022/08/08 01:33:43;;;;;;;5.18;3.10;;;18.30;50.60;;;;;;5057277;28;20084;-48
2022/08/08 01:36:39;;;;;;;3.00;2.63;;;18.30;49.70;;;;;;5044567;28;20046;-47
2022/08/08 01:39:45;;;;;;;3.03;2.60;;;18.30;50.70;;;;;;5055030;28;20409;-51
2022/08/08 01:42:48;;;;;;;2.67;2.47;;;18.20;50.90;;;;;;5052931;28;20132;-48
2022/08/08 01:45:35;;;;;;;2.38;2.17;;;18.20;50.90;;;;;;5054415;28;20057;-46
2022/08/08 01:48:36;;;;;;;2.70;2.40;;;18.20;51.00;;;;;;5060182;28;20071;-49
2022/08/08 01:51:27;;;;;;;2.85;2.55;;;18.10;51.10;;;;;;5066697;28;20040;-47
2022/08/08 01:54:53;;;;;;;3.58;2.53;;;18.10;51.30;;;;;;5056660;28;20382;-50
2022/08/08 01:57:57;;;;;;;3.20;2.90;;;18.00;51.40;;;;;;5034543;28;20135;-49
2022/08/08 02:00:58;;;;;;;2.83;2.63;;;18.10;50.50;;;;;;5044508;28;20044;-51
2022/08/08 02:04:06;;;;;;;2.97;2.67;;;17.90;51.60;;;;;;5013921;28;20073;-50
2022/08/08 02:06:50;;;;;;;3.40;3.00;;;17.90;51.80;;;;;;5013199;28;20048;-50
2022/08/08 02:09:57;;;;;;;4.05;2.38;;;17.90;51.90;;;;;;5013858;28;20049;-49
2022/08/08 02:12:59;;;;;;;3.17;2.90;;;17.90;52.00;;;;;;5013065;28;20110;-50
2022/08/08 02:15:46;;;;;;;3.05;2.65;;;17.80;52.10;;;;;;5020974;28;20637;-50
2022/08/08 02:18:21;;;;;;;3.80;3.15;;;17.80;52.10;;;;;;5070046;28;20093;-50
2022/08/08 02:24:06;;;;;;;4.13;2.78;;;17.80;52.20;;;;;;5053474;28;20127;-50
2022/08/08 02:26:56;;;;;;;4.65;3.35;;;17.80;51.70;;;;;;5052757;28;20516;-49
2022/08/08 02:29:55;;;;;;;5.78;2.97;;;17.70;52.20;;;;;;5052987;28;20075;-50
2022/08/08 02:33:06;;;;;;;4.57;3.30;;;17.70;52.50;;;;;;5052521;28;20044;-50
2022/08/08 02:35:34;;;;;;;3.30;3.00;;;17.70;52.60;;;;;;5053109;28;20045;-48
2022/08/08 02:38:32;;;;;;;3.72;3.08;;;17.60;51.60;;;;;;5043413;28;20056;-50
2022/08/08 02:41:33;;;;;;;3.88;3.17;;;17.60;52.50;;;;;;5052067;28;20131;-48
2022/08/08 02:44:53;;;;;;;2.90;2.60;;;17.60;52.70;;;;;;5032369;28;20040;-49
2022/08/08 02:48:07;;;;;;;3.70;2.97;;;17.60;52.50;;;;;;5038740;28;20531;-50
2022/08/08 02:50:46;;;;;;;3.95;3.55;;;17.50;52.80;;;;;;5051998;28;20041;-49
2022/08/08 02:54:00;;;;;;;4.72;3.40;;;17.50;52.70;;;;;;5043386;28;20049;-50
2022/08/08 02:56:53;;;;;;;4.40;3.50;;;17.50;53.10;;;;;;5002851;28;20044;-48
2022/08/08 02:59:59;;;;;;;4.47;3.70;;;17.50;53.20;;;;;;5031528;28;20044;-49
2022/08/08 03:03:12;;;;;;;3.25;2.95;;;17.40;53.30;;;;;;5049924;28;20053;-50
2022/08/08 03:05:45;;;;;;;3.90;3.45;;;17.40;53.30;;;;;;5032225;28;20045;-49
2022/08/08 03:08:26;;;;;;;5.35;3.50;;;17.40;52.30;;;;;;5032804;28;20171;-46
2022/08/08 03:11:02;;;;;;;5.20;3.60;;;17.30;53.10;;;;;;5052035;28;20033;-46
2022/08/08 03:13:46;;;;;;;4.05;3.67;;;17.30;53.20;;;;;;5041950;28;20064;-49
2022/08/08 03:16:58;;;;;;;4.18;3.03;;;17.30;53.10;;;;;;5030188;28;20038;-46
2022/08/08 03:20:05;;;;;;;4.35;3.72;;;17.30;53.20;;;;;;4983331;28;20046;-47
2022/08/08 03:22:45;;;;;;;3.65;3.28;;;17.30;53.40;;;;;;5012440;28;20391;-49
2022/08/08 03:25:14;;;;;;;4.03;3.38;;;17.20;52.80;;;;;;5012711;28;20049;-50
2022/08/08 03:28:11;;;;;;;4.25;3.47;;;17.10;52.50;;;;;;5012595;28;20136;-47
2022/08/08 03:30:45;;;;;;;4.43;3.47;;;17.20;53.20;;;;;;5034561;28;20067;-49
2022/08/08 03:33:23;;;;;;;5.13;3.40;;;17.10;52.80;;;;;;5039848;28;20127;-49
2022/08/08 03:36:13;;;;;;;5.53;3.60;;;17.00;52.40;;;;;;5051541;28;20305;-47
2022/08/08 03:38:50;;;;;;;4.22;3.50;;;17.10;52.70;;;;;;5052274;28;20059;-49
2022/08/08 03:41:36;;;;;;;4.00;3.63;;;17.00;53.00;;;;;;5032934;28;20052;-50
2022/08/08 03:44:33;;;;;;;4.65;4.10;;;17.00;53.20;;;;;;5060455;28;20090;-50
2022/08/08 03:47:07;;;;;;;4.63;3.58;;;17.00;53.60;;;;;;5051774;28;20048;-47
2022/08/08 03:49:52;;;;;;;4.00;3.58;;;16.90;53.30;;;;;;5052165;28;20040;-50
2022/08/08 03:52:35;;;;;;;4.80;3.47;;;17.00;53.60;;;;;;5039700;28;20041;-49
2022/08/08 03:55:13;;;;;;;3.95;3.55;;;16.90;53.50;;;;;;5032048;28;20068;-51
2022/08/08 03:58:01;;;;;;;4.63;3.92;;;16.90;53.70;;;;;;5031285;28;20132;-49
2022/08/08 04:00:55;;;;;;;6.73;3.40;;;16.90;53.60;;;;;;5045934;28;20524;-49
2022/08/08 04:03:48;;;;;;;4.53;3.72;;;16.90;53.70;;;;;;5028887;28;20318;-50
2022/08/08 04:06:28;;;;;;;;;;;16.90;53.90;;;;;;5052718;28;20051;-50
2022/08/08 04:08:58;;;;;;;;;;;16.90;53.00;;;;;;5033667;28;19921;-49
2022/08/08 04:11:43;;;;;;;3.53;3.17;;;16.90;52.30;;;;;;5055249;28;20343;-50
2022/08/08 04:14:35;;;;;;;4.40;3.72;;;16.80;52.80;;;;;;5015829;28;20536;-47
2022/08/08 04:17:04;;;;;;;4.82;3.65;;;16.80;52.60;;;;;;5020695;28;20044;-47
2022/08/08 04:19:55;;;;;;;5.55;3.53;;;16.70;52.90;;;;;;5046259;28;20496;-48
2022/08/08 04:22:26;;;;;;;4.30;3.90;;;16.70;53.20;;;;;;5051583;28;20140;-50
2022/08/08 04:24:57;;;;;;;4.05;3.65;;;16.70;53.60;;;;;;5041993;28;20053;-50
2022/08/08 04:27:28;;;;;;;4.72;3.80;;;16.70;53.60;;;;;;5045411;28;20048;-46
2022/08/08 04:30:21;;;;;;;4.65;4.20;;;16.70;53.80;;;;;;5051999;28;20047;-49
2022/08/08 04:32:51;;;;;;;5.70;3.67;;;16.60;53.70;;;;;;5055294;28;20059;-49
2022/08/08 04:35:21;;;;;;;3.72;3.42;;;16.60;53.90;;;;;;5055544;28;20131;-48
2022/08/08 04:37:51;;;;;;;3.97;3.13;;;16.60;54.10;;;;;;5041236;28;20044;-50
2022/08/08 04:40:22;;;;;;;4.63;4.18;;;16.60;54.20;;;;;;5040437;28;20048;-47
2022/08/08 04:42:55;;;;;;;4.47;3.53;;;16.60;54.30;;;;;;5041999;28;20045;-50
2022/08/08 04:45:41;;;;;;;5.38;3.35;;;16.60;54.40;;;;;;5040951;28;20049;-50
2022/08/08 04:48:12;;;;;;;5.33;3.33;;;16.60;54.40;;;;;;5041520;28;20557;-50
2022/08/08 04:50:41;;;;;;;4.80;3.67;;;16.60;54.60;;;;;;5048867;28;20047;-47
2022/08/08 04:53:16;;;;;;;5.38;4.10;;;16.60;54.90;;;;;;5053096;28;20052;-50
2022/08/08 04:56:06;;;;;;;4.03;3.63;;;16.60;55.10;;;;;;5034201;28;20044;-47
2022/08/08 04:58:39;;;;;;;3.92;3.50;;;16.60;55.20;;;;;;5038993;28;20090;-49
2022/08/08 05:01:07;;;;;;;4.82;4.28;;;16.60;55.40;;;;;;5036737;28;20131;-50
2022/08/08 05:03:40;;;;;;;6.15;3.83;;;16.70;55.50;;;;;;5029293;28;20521;-49
2022/08/08 05:06:32;;;;;;;5.82;3.75;;;16.70;55.70;;;;;;5031334;28;20041;-48
2022/08/08 05:09:03;;;;;;;5.97;4.20;;;16.70;55.90;;;;;;5050869;28;20049;-49
2022/08/08 05:11:37;;;;;;;7.15;4.72;;;16.80;56.00;;;;;;5069639;28;20044;-50
2022/08/08 05:14:10;;;;;;;7.72;4.47;;;16.80;56.20;;;;;;5033250;28;20048;-50
2022/08/08 05:16:43;;;;;;;6.00;4.40;;;16.80;56.50;;;;;;5042707;28;20048;-46
2022/08/08 05:19:26;;;;;;;4.85;4.35;;;16.90;56.70;;;;;;5013389;28;20057;-50
2022/08/08 05:22:14;;;;;;;6.00;4.18;;;16.90;56.90;;;;;;5020557;28;20510;-46
2022/08/08 05:24:46;;;;;;;4.93;3.92;;;17.00;57.00;;;;;;5025887;28;20076;-54
2022/08/08 05:27:16;;;;;;;5.97;4.72;;;17.00;57.20;;;;;;5040731;28;20048;-51
2022/08/08 05:29:46;;;;;;;6.05;4.95;;;17.10;57.50;;;;;;5036397;28;20041;-49
2022/08/08 05:32:22;;;;;;;7.85;5.20;;;17.10;57.60;;;;;;5036727;28;20574;-51
2022/08/08 05:34:59;;;;;;;6.68;5.53;;;17.20;58.80;;;;;;5050353;28;20052;-51
2022/08/08 05:37:38;;;;;;;7.65;5.30;;;17.30;59.00;;;;;;5032652;28;20045;-49
2022/08/08 05:40:27;;;;;;;6.90;5.28;;;17.30;59.20;;;;;;5031960;28;20113;-52
2022/08/08 05:43:09;;;;;;;8.63;5.35;;;17.40;59.50;;;;;;5033587;28;20046;-50
2022/08/08 05:46:03;;;;;;;;;;;17.50;60.50;;;;;;5048213;28;20041;-50
2022/08/08 05:48:38;;;;;;;5.70;4.88;;;17.70;58.20;;;;;;5070379;28;20007;-50
2022/08/08 05:51:14;;;;;;;6.07;5.47;;;17.70;58.50;;;;;;5019567;28;20045;-49
2022/08/08 05:53:46;;;;;;;7.07;5.50;;;17.80;58.90;;;;;;5043201;28;20063;-51
2022/08/08 05:56:38;;;;;;;7.07;5.57;;;17.90;59.20;;;;;;5048862;28;20045;-51
2022/08/08 05:59:22;;;;;;;8.68;6.10;;;18.00;59.40;;;;;;5026166;28;20143;-51
2022/08/08 06:05:17;;;;;;;7.55;4.97;;;18.20;59.90;;;;;;5050837;28;20044;-51
2022/08/08 06:08:11;;;;;;;6.68;4.38;;;18.30;59.20;;;;;;5051949;28;20068;-50
2022/08/08 06:11:05;;;;;;;8.52;5.28;;;18.40;59.20;;;;;;5036009;28;20053;-49
2022/08/08 06:13:34;;;;;;;6.15;5.28;;;18.40;58.80;;;;;;5040427;28;20564;-50
2022/08/08 06:16:16;;;;;;;6.57;4.93;;;18.50;59.00;;;;;;5037115;28;20127;-50
2022/08/08 06:18:53;;;;;;;6.78;5.20;;;18.60;58.90;;;;;;5057790;28;20057;-48
2022/08/08 06:21:25;;;;;;;6.93;5.15;;;18.60;59.00;;;;;;5034925;28;20067;-48
2022/08/08 06:24:12;;;;;;;6.18;4.93;;;18.70;59.30;;;;;;5067526;28;20056;-47
2022/08/08 06:26:49;;;;;;;5.68;4.90;;;18.80;58.50;;;;;;5051527;28;20049;-47
2022/08/08 06:29:30;;;;;;;6.57;4.72;;;18.80;58.70;;;;;;5028965;28;20131;-51
2022/08/08 06:32:28;;;;;;;5.18;4.30;;;19.00;58.90;;;;;;5051409;28;20455;-51
2022/08/08 06:35:00;;;;;;;6.35;4.90;;;19.00;58.60;;;;;;5052028;28;20150;-46
2022/08/08 06:37:57;;;;;;;5.53;4.45;;;19.10;58.60;;;;;;5037370;28;20045;-49
2022/08/08 06:40:31;;;;;;;7.03;4.97;;;19.10;58.50;;;;;;5042753;28;20040;-48
2022/08/08 06:43:22;;;;;;;5.03;4.10;;;19.20;58.00;;;;;;5043216;28;20040;-48
2022/08/08 06:46:06;;;;;;;4.57;3.92;;;19.30;58.30;;;;;;5030936;28;20080;-50
2022/08/08 06:48:42;;;;;;;6.25;4.80;;;19.40;57.90;;;;;;5042626;28;20040;-51
2022/08/08 06:51:14;;;;;;;8.00;4.63;;;19.50;57.60;;;;;;5051695;28;20513;-50
2022/08/08 06:53:44;;;;;;;7.53;5.03;;;19.50;57.30;;;;;;5052008;28;20099;-50
2022/08/08 06:56:23;;;;;;;7.88;4.90;;;19.60;57.30;;;;;;5029029;28;20041;-51
2022/08/08 06:58:52;;;;;;;6.95;4.63;;;19.70;57.40;;;;;;5024182;28;20071;-49
2022/08/08 07:01:26;;;;;;;6.03;4.10;;;19.70;57.10;;;;;;5040453;28;20135;-49
2022/08/08 07:04:43;;;;;;;4.53;4.10;;;19.80;57.10;;;;;;5051677;28;20413;-51
2022/08/08 07:07:46;;;;;;;5.72;4.10;;;19.90;57.10;;;;;;5042076;28;20412;-48
2022/08/08 07:10:19;;;;;;;5.05;4.53;;;20.00;56.70;;;;;;5039341;28;20131;-48
2022/08/08 07:13:04;;;;;;;5.30;4.80;;;20.00;56.30;;;;;;5051323;28;20040;-49
2022/08/08 07:15:58;;;;;;;4.95;4.32;;;20.10;56.40;;;;;;5025133;28;20049;-51
2022/08/08 07:18:55;;;;;;;5.05;4.28;;;20.20;56.30;;;;;;5028154;28;20055;-51
2022/08/08 07:21:32;;;;;;;5.65;4.38;;;20.30;56.50;;;;;;5028345;28;20132;-51
2022/08/08 07:24:08;;;;;;;5.97;4.45;;;20.30;55.80;;;;;;5016370;28;20056;-51
2022/08/08 07:26:48;;;;;;;7.43;4.47;;;20.40;56.10;;;;;;5033879;28;20718;-51
2022/08/08 07:29:20;;;;;;;5.03;4.53;;;20.40;55.90;;;;;;5052070;28;20535;-50
2022/08/08 07:32:14;;;;;;;6.85;4.43;;;20.50;55.70;;;;;;5051251;28;20048;-51
2022/08/08 07:34:47;;;;;;;4.32;3.90;;;20.60;55.60;;;;;;5040641;28;20037;-50
2022/08/08 07:37:33;;;;;;;4.78;4.35;;;20.70;55.30;;;;;;5030889;28;20048;-51
2022/08/08 07:40:27;;;;;;;4.95;4.22;;;20.80;55.00;;;;;;5045545;28;20044;-51
2022/08/08 07:43:05;;;;;;;5.28;3.97;;;20.80;54.90;;;;;;5051753;28;20202;-48
2022/08/08 07:45:41;;;;;;;6.70;4.47;;;20.90;54.60;;;;;;5032056;28;20045;-51
2022/08/08 07:48:29;;;;;;;4.03;3.60;;;21.00;54.30;;;;;;5041891;28;20119;-50
2022/08/08 07:50:59;;;;;;;4.78;4.03;;;21.10;54.30;;;;;;5056103;28;20044;-51
2022/08/08 07:53:37;;;;;;;4.70;4.20;;;21.10;54.10;;;;;;5045427;28;20136;-50
2022/08/08 07:56:32;;;;;;;4.35;3.80;;;21.20;54.00;;;;;;5058741;28;20416;-52
2022/08/08 07:59:15;;;;;;;4.70;3.88;;;21.30;53.70;;;;;;5055603;28;20052;-50
2022/08/08 08:01:58;;;;;;;4.68;4.00;;;21.40;53.70;;;;;;5055068;28;20067;-49
2022/08/08 08:04:54;;;;;;;5.28;3.83;;;21.40;53.40;;;;;;5034266;28;20041;-50
2022/08/08 08:07:25;;;;;;;3.92;3.60;;;21.50;53.40;;;;;;5039286;28;20382;-52
2022/08/08 08:10:07;;;;;;;5.03;3.88;;;21.50;53.70;;;;;;5056436;28;20068;-49
2022/08/08 08:12:51;;;;;;;5.95;3.50;;;21.60;52.90;;;;;;5031377;28;20053;-50
2022/08/08 08:15:25;;;;;;;4.13;3.10;;;21.70;52.80;;;;;;5047578;28;20055;-51
2022/08/08 08:18:00;;;;;;;5.75;4.55;;;21.70;52.50;;;;;;5054658;28;20047;-50
2022/08/08 08:20:32;;;;;;;3.75;3.38;;;21.80;52.50;;;;;;5053031;28;20044;-50
2022/08/08 08:23:05;;;;;;;7.43;4.30;;;21.80;52.50;;;;;;5039545;28;20046;-49
2022/08/08 08:25:35;;;;;;;6.50;3.90;;;21.90;52.20;;;;;;5055379;28;20060;-49
2022/08/08 08:28:15;;;;;;;4.95;3.72;;;21.90;52.20;;;;;;5054398;28;20048;-50
2022/08/08 08:30:53;;;;;;;5.38;4.15;;;22.00;52.00;;;;;;5045164;28;20486;-50
2022/08/08 08:33:27;;;;;;;3.70;2.97;;;22.10;51.80;;;;;;5053191;28;20128;-49
2022/08/08 08:35:59;;;;;;;5.15;3.10;;;22.20;52.00;;;;;;5055381;28;20283;-51
2022/08/08 08:38:49;;;;;;;4.72;3.30;;;22.20;51.60;;;;;;5069923;28;20048;-51
2022/08/08 08:41:24;;;;;;;6.07;4.05;;;22.30;51.20;;;;;;5059786;28;20075;-50
2022/08/08 08:43:56;;;;;;;3.92;3.13;;;22.30;51.00;;;;;;5054820;28;20048;-49
2022/08/08 08:46:41;;;;;;;6.07;3.25;;;22.40;50.90;;;;;;5054295;28;20053;-50
2022/08/08 08:49:20;;;;;;;3.90;3.50;;;22.50;50.60;;;;;;5031354;28;20044;-49
2022/08/08 08:51:57;;;;;;;3.85;3.45;;;22.60;50.30;;;;;;5037390;28;20052;-47
2022/08/08 08:54:28;;;;;;;4.55;4.03;;;22.60;50.10;;;;;;5040640;28;20500;-51
2022/08/08 08:57:05;;;;;;;4.47;2.95;;;22.60;50.30;;;;;;5071967;28;20052;-47
2022/08/08 08:59:46;;;;;;;4.65;3.78;;;22.70;50.00;;;;;;5040247;28;20077;-48
2022/08/08 09:02:34;;;;;;;4.43;3.42;;;22.70;49.80;;;;;;5057441;28;20045;-50
2022/08/08 09:05:09;;;;;;;4.40;3.40;;;22.80;50.00;;;;;;5055324;28;20405;-51
2022/08/08 09:08:01;;;;;;;3.88;3.15;;;22.80;49.70;;;;;;5066482;28;20041;-51
2022/08/08 09:10:48;;;;;;;3.20;2.90;;;22.90;49.40;;;;;;5046462;28;20539;-55
2022/08/08 09:13:17;;;;;;;3.88;2.90;;;22.90;49.50;;;;;;5071834;28;20407;-51
2022/08/08 09:15:55;;;;;;;3.65;3.08;;;22.90;49.60;;;;;;5054751;28;20401;-50
2022/08/08 09:18:33;;;;;;;3.83;2.78;;;23.00;49.30;;;;;;5034339;28;20123;-52
2022/08/08 09:21:05;;;;;;;5.18;3.35;;;23.00;49.10;;;;;;5048164;28;20086;-51
2022/08/08 09:23:55;;;;;;;3.40;2.55;;;23.10;48.90;;;;;;5054538;28;20512;-50
2022/08/08 09:26:56;;;;;;;3.33;2.72;;;23.20;49.00;;;;;;5031588;28;20041;-51
2022/08/08 09:29:26;;;;;;;3.28;2.65;;;23.30;48.30;;;;;;5036394;28;20506;-50
2022/08/08 09:32:06;;;;;;;2.67;2.47;;;23.30;48.00;;;;;;5052965;28;20036;-52
2022/08/08 09:34:53;;;;;;;4.55;2.13;;;23.40;47.50;;;;;;5054346;28;20048;-51
2022/08/08 09:37:39;;;;;;;2.97;2.33;;;23.40;47.30;;;;;;5037686;28;20041;-50
2022/08/08 09:40:33;;;;;;;3.28;2.60;;;23.50;47.40;;;;;;5053822;28;20047;-51
2022/08/08 09:43:28;;;;;;;3.15;2.83;;;23.50;46.90;;;;;;5071181;28;20049;-51
2022/08/08 09:46:16;;;;;;;2.78;2.17;;;23.60;46.50;;;;;;5057233;28;20115;-50
2022/08/08 09:48:58;;;;;;;3.57;3.27;;;23.60;47.10;;;;;;5061068;28;20062;-51
2022/08/08 09:51:51;;;;;;;2.40;2.20;;;23.60;47.00;;;;;;5071049;28;20115;-50
2022/08/08 09:54:45;;;;;;;6.53;2.80;;;23.70;47.00;;;;;;5046370;28;20037;-51
2022/08/08 09:57:17;;;;;;;2.40;2.20;;;23.80;46.40;;;;;;5069527;28;20100;-47
2022/08/08 09:59:49;;;;;;;2.53;2.33;;;23.80;46.20;;;;;;5051918;28;20485;-50
2022/08/08 10:02:50;;;;;;;4.18;2.08;;;23.80;46.20;;;;;;5059561;28;20055;-51
2022/08/08 10:05:24;;;;;;;3.28;2.03;;;23.90;45.50;;;;;;5035999;28;20049;-50
2022/08/08 10:07:51;;;;;;;2.80;2.45;;;23.90;45.60;;;;;;5059831;28;20068;-50
2022/08/08 10:10:35;;;;;;;2.75;2.22;;;23.90;45.40;;;;;;5057081;28;20044;-51
2022/08/08 10:13:24;;;;;;;3.13;2.60;;;24.00;44.90;;;;;;5051745;28;20037;-51
2022/08/08 10:16:02;;;;;;;3.20;2.53;;;24.10;45.10;;;;;;5037804;28;20094;-47
2022/08/08 10:18:38;;;;;;;5.38;2.75;;;24.10;44.40;;;;;;5065702;28;20051;-50
2022/08/08 10:21:09;;;;;;;2.35;2.15;;;24.20;44.30;;;;;;5057997;28;20068;-48
2022/08/08 10:24:06;;;;;;;2.35;2.15;;;24.20;45.40;;;;;;5045126;28;20037;-52
2022/08/08 10:26:59;;;;;;;3.47;2.63;;;24.30;44.70;;;;;;5070335;28;20044;-52
2022/08/08 10:29:56;;;;;;;3.72;2.63;;;24.30;44.70;;;;;;5031221;28;20128;-50
2022/08/08 10:32:39;;;;;;;4.53;2.30;;;24.40;44.20;;;;;;5039719;28;20045;-50
2022/08/08 10:35:32;;;;;;;4.00;2.83;;;24.50;44.30;;;;;;5042865;28;20139;-50
2022/08/08 10:38:19;;;;;;;1.98;1.88;;;24.50;44.00;;;;;;5055740;28;20133;-49
2022/08/08 10:40:51;;;;;;;3.45;2.72;;;24.60;44.70;;;;;;5054621;28;20522;-49
2022/08/08 10:43:22;;;;;;;4.43;3.00;;;24.60;44.70;;;;;;5045386;28;20479;-49
2022/08/08 10:45:49;;;;;;;3.88;2.38;;;24.70;44.70;;;;;;5068373;28;20055;-50
2022/08/08 10:48:34;;;;;;;4.18;2.78;;;24.70;44.50;;;;;;5070907;28;20079;-51
2022/08/08 10:51:26;;;;;;;3.63;2.63;;;24.80;43.30;;;;;;5039241;28;20394;-48
2022/08/08 10:54:08;;;;;;;4.07;2.72;;;24.80;44.10;;;;;;5056771;28;20045;-51
2022/08/08 10:56:36;;;;;;;2.65;2.38;;;24.90;43.70;;;;;;5069962;28;20048;-48
2022/08/08 10:59:11;;;;;;;3.25;2.95;;;24.90;43.60;;;;;;5064863;28;20115;-51
2022/08/08 11:01:51;;;;;;;2.72;2.53;;;25.00;43.50;;;;;;5051570;28;20394;-47
2022/08/08 11:04:22;;;;;;;3.47;2.50;;;25.00;43.30;;;;;;5054308;28;20036;-47
2022/08/08 11:07:04;;;;;;;5.68;2.45;;;25.10;43.40;;;;;;5066352;28;20040;-53
2022/08/08 11:09:32;;;;;;;3.38;2.13;;;25.20;43.50;;;;;;5068757;28;20040;-51
2022/08/08 11:12:01;;;;;;;3.70;2.50;;;25.20;42.90;;;;;;5049978;28;20044;-49
2022/08/08 11:15:00;;;;;;;4.40;2.35;;;25.30;42.60;;;;;;5066482;28;20152;-50
2022/08/08 11:17:30;;;;;;;3.38;2.83;;;25.30;42.70;;;;;;5044507;28;20630;-49
2022/08/08 11:20:20;;;;;;;4.43;2.88;;;25.30;43.70;;;;;;5046196;28;20040;-49
2022/08/08 11:22:55;;;;;;;3.15;2.50;;;25.40;42.80;;;;;;5059447;28;20045;-47
2022/08/08 11:25:26;;;;;;;2.63;2.33;;;25.40;42.90;;;;;;5054456;28;20504;-54
2022/08/08 11:28:18;;;;;;;3.58;2.47;;;25.40;42.80;;;;;;5067938;28;20086;-51
2022/08/08 11:30:48;;;;;;;4.38;2.88;;;25.50;43.20;;;;;;5052528;28;20082;-52
2022/08/08 11:33:18;;;;;;;2.83;2.50;;;25.60;42.80;;;;;;5069621;28;20040;-51
2022/08/08 11:35:48;;;;;;;2.70;1.73;;;25.60;42.30;;;;;;5058319;28;20091;-53
2022/08/08 11:38:15;;;;;;;4.20;2.40;;;25.70;42.40;;;;;;5045719;28;20087;-51
2022/08/08 11:41:05;;;;;;;3.25;2.20;;;25.80;42.00;;;;;;5065614;28;20119;-49
2022/08/08 11:43:35;;;;;;;3.55;2.15;;;25.90;42.10;;;;;;5069349;28;20417;-52
2022/08/08 11:46:11;;;;;;;2.38;2.17;;;25.90;42.10;;;;;;5049273;28;20049;-52
2022/08/08 11:48:45;;;;;;;2.28;2.08;;;26.00;41.80;;;;;;5048377;28;20041;-50
2022/08/08 11:51:14;;;;;;;2.50;2.10;;;26.10;41.60;;;;;;5063310;28;20442;-50
2022/08/08 11:54:13;;;;;;;2.83;2.38;;;26.10;41.60;;;;;;5069205;28;20049;-49
2022/08/08 11:57:18;;;;;;;4.05;2.35;;;26.10;41.40;;;;;;5052927;28;20053;-48
2022/08/08 12:00:01;;;;;;;2.22;1.88;;;26.20;40.80;;;;;;5060095;28;20033;-49
2022/08/08 12:02:56;;;;;;;2.55;2.17;;;26.20;40.60;;;;;;5057268;28;20072;-53
2022/08/08 12:05:37;;;;;;;2.38;2.08;;;26.30;41.00;;;;;;5039673;28;20052;-50
2022/08/08 12:08:05;;;;;;;2.17;1.80;;;26.40;40.80;;;;;;5062581;28;20045;-46
2022/08/08 12:10:44;;;;;;;2.60;2.40;;;26.50;40.90;;;;;;5042007;28;20033;-48
2022/08/08 12:13:20;;;;;;;2.50;1.70;;;26.50;40.10;;;;;;5037983;28;20108;-51
2022/08/08 12:16:11;;;;;;;3.20;1.75;;;26.50;39.70;;;;;;5049165;28;20034;-49
2022/08/08 12:18:52;;;;;;;1.83;1.67;;;26.60;40.10;;;;;;5052777;28;20514;-49
2022/08/08 12:21:21;;;;;;;2.78;1.85;;;26.70;39.30;;;;;;5055175;28;20095;-50
2022/08/08 12:24:18;;;;;;;2.53;1.70;;;26.70;40.00;;;;;;5049718;28;20124;-47
2022/08/08 12:26:47;;;;;;;2.38;1.65;;;26.80;38.60;;;;;;5045810;28;20041;-51
2022/08/08 12:29:37;;;;;;;2.65;1.45;;;26.80;38.50;;;;;;5063195;28;20044;-49
2022/08/08 12:32:15;;;;;;;2.17;1.70;;;26.90;38.30;;;;;;5071420;28;20510;-47
2022/08/08 12:34:56;;;;;;;2.65;1.73;;;26.90;38.30;;;;;;5035650;28;20044;-50
2022/08/08 12:37:34;;;;;;;2.50;2.30;;;27.00;37.90;;;;;;5052920;28;20048;-51
2022/08/08 12:40:14;;;;;;;3.50;1.90;;;27.00;37.90;;;;;;5073592;28;20059;-52
2022/08/08 12:42:50;;;;;;;1.50;1.40;;;27.10;37.50;;;;;;5072735;28;20045;-47
2022/08/08 12:45:17;;;;;;;5.07;2.00;;;27.10;37.50;;;;;;5052243;28;20041;-49
2022/08/08 12:48:06;;;;;;;1.38;1.27;;;27.20;38.10;;;;;;5050255;28;20133;-47
2022/08/08 12:50:57;;;;;;;1.70;1.60;;;27.20;37.00;;;;;;5039897;28;20394;-51
2022/08/08 12:53:29;;;;;;;;;;;27.30;37.20;;;;;;5039355;28;20091;-51
2022/08/08 12:56:09;;;;;;;1.48;1.35;;;27.40;38.00;;;;;;5069584;28;19927;-52
2022/08/08 12:58:52;;;;;;;1.75;1.48;;;27.40;36.90;;;;;;5072333;28;20515;-52
2022/08/08 13:01:33;;;;;;;2.63;1.58;;;27.50;37.10;;;;;;5052351;28;20045;-48
2022/08/08 13:04:17;;;;;;;2.43;1.50;;;27.50;37.10;;;;;;5068510;28;20407;-47
2022/08/08 13:07:05;;;;;;;2.08;1.60;;;27.60;37.10;;;;;;5068838;28;20036;-50
2022/08/08 13:09:56;;;;;;;1.98;1.40;;;27.70;36.40;;;;;;5059690;28;20045;-51
2022/08/08 13:12:47;;;;;;;3.33;1.20;;;27.70;36.70;;;;;;5053562;28;20040;-48
2022/08/08 13:15:18;;;;;;;1.60;1.27;;;27.80;37.20;;;;;;5068886;28;20053;-49
2022/08/08 13:17:47;;;;;;;1.70;1.10;;;27.90;36.50;;;;;;5071455;28;20059;-49
2022/08/08 13:20:45;;;;;;;1.30;1.20;;;28.00;36.00;;;;;;5063939;28;20041;-48
2022/08/08 13:23:20;;;;;;;1.42;1.33;;;28.10;35.50;;;;;;5067193;28;20052;-51
2022/08/08 13:26:08;;;;;;;1.75;1.30;;;28.20;35.50;;;;;;5071447;28;20390;-50
2022/08/08 13:28:41;;;;;;;1.42;0.90;;;28.30;35.50;;;;;;5068402;28;20556;-47
2022/08/08 13:31:12;;;;;;;2.72;1.08;;;28.40;35.40;;;;;;5050018;28;20037;-51
2022/08/08 13:33:49;;;;;;;1.75;0.82;;;28.50;35.40;;;;;;5057856;28;20036;-49
2022/08/08 13:36:20;;;;;;;1.30;0.70;;;28.70;34.90;;;;;;5058181;28;20042;-51
2022/08/08 13:38:54;;;;;;;1.05;0.98;;;28.80;34.80;;;;;;5071885;28;20111;-50
2022/08/08 13:41:26;;;;;;;0.70;0.63;;;29.20;35.00;;;;;;5054367;28;20052;-49
2022/08/08 13:44:06;;;;;;;2.85;0.65;;;29.70;35.10;;;;;;5035809;28;20041;-49
2022/08/08 13:46:41;;;;;;;0.50;0.50;;;30.50;34.40;;;;;;5061895;28;20059;-52
2022/08/08 13:49:16;;;;;;;1.73;0.68;;;31.40;33.90;;;;;;5069391;28;20068;-50
2022/08/08 13:52:04;;;;;;;1.17;0.52;;;32.40;33.70;;;;;;5052780;28;20044;-49
2022/08/08 13:54:43;;;;;;;1.58;0.68;;;33.40;33.30;;;;;;5043081;28;20033;-51
2022/08/08 13:57:16;;;;;;;1.30;0.50;;;34.50;32.30;;;;;;5039896;28;20045;-48
2022/08/08 14:00:08;;;;;;;0.73;0.70;;;35.50;31.10;;;;;;5044191;28;20566;-48
2022/08/08 14:02:38;;;;;;;1.67;0.70;;;36.60;29.90;;;;;;5055488;28;20405;-51
2022/08/08 14:05:08;;;;;;;1.40;0.57;;;37.50;29.80;;;;;;5066445;28;20043;-48
2022/08/08 14:07:49;;;;;;;1.02;0.40;;;38.40;29.00;;;;;;5049493;28;20513;-52
2022/08/08 14:10:26;;;;;;;0.90;0.30;;;39.20;28.80;;;;;;5050805;28;20041;-52
2022/08/08 14:13:08;;;;;;;2.45;0.40;;;39.90;28.00;;;;;;5050402;28;20091;-48
2022/08/08 14:16:02;;;;;;;0.85;0.32;;;40.80;27.60;;;;;;5047996;28;20045;-51
2022/08/08 14:18:36;;;;;;;1.08;0.63;;;41.60;26.60;;;;;;5057012;28;20044;-49
2022/08/08 14:21:20;;;;;;;0.45;0.30;;;42.30;26.50;;;;;;5067161;28;20051;-48